F/V Eguzki Lore — ECGF — position and weather

sailwx.info

Track history (hours):
 
Tides and Currents Weather Stations Pressure Air Temp Water Temp Dewpoint Dewpoint Depression Visibility Wind Speed Wind Dir Waves Ship Positions

F/V Eguzki Lore

Last reported at 2018-Feb-14 21:36 UTC. Time now 2018-Feb-20 15:44 UTC.
Position N 43°46' W 002°14'.

Length 37 m.

Type: Fishing. MMSI: 224265000.

Date/timePositionNaut miles runAvg speedWind from/ knotsBaromVisibWave heightAir tempDewpointWater temp
2018-Feb-14 21:36N 43°46' W 002°14'111.2
2018-Feb-14 21:31N 43°45' W 002°14'611.4
2018-Feb-14 21:00N 43°39' W 002°16'611.5
2018-Feb-14 20:31N 43°34' W 002°19'611.3
2018-Feb-14 20:01N 43°28' W 002°21'611.2
2018-Feb-14 19:30N 43°23' W 002°23'3 0.1
2018-Feb-13 22:27N 43°20' W 002°24'2 4.4
2018-Feb-13 21:59N 43°22' W 002°24'2 4.5
2018-Feb-13 21:30N 43°24' W 002°26'1 2.1
2018-Feb-13 21:00N 43°23' W 002°25'2 3.1
2018-Feb-13 20:23N 43°22' W 002°23'1 4.0
2018-Feb-13 20:00N 43°23' W 002°22'510.2
2018-Feb-13 19:30N 43°27' W 002°18'610.2
2018-Feb-13 18:57N 43°32' W 002°14'  
2018-Feb-07 23:46N 43°51' W 002°13'410.4
2018-Feb-07 23:23N 43°47' W 002°14'410.4
2018-Feb-07 23:00N 43°43' W 002°16'510.9
2018-Feb-07 22:30N 43°38' W 002°18'510.7
2018-Feb-07 22:00N 43°33' W 002°20'510.6
2018-Feb-07 21:31N 43°28' W 002°22'8 0.3
2018-Feb-06 22:23N 43°20' W 002°24'411.6
2018-Feb-06 22:00N 43°24' W 002°21'611.4
2018-Feb-06 21:30N 43°29' W 002°17'611.5
2018-Feb-06 21:00N 43°34' W 002°13'1911.6
2018-Feb-06 19:23N 43°51' W 002°01'1 3.1
2018-Feb-06 18:58N 43°52' W 001°60'2 4.0
2018-Feb-06 18:29N 43°54' W 001°60'  
Track history (hours):
 
Tides and Currents Weather Stations Pressure Air Temp Water Temp Dewpoint Dewpoint Depression Visibility Wind Speed Wind Dir Waves Ship Positions

F/V Eguzki Lore

Last reported at 2018-Feb-14 21:36 UTC. Time now 2018-Feb-20 15:44 UTC.
Position N 43°46' W 002°14'.

Length 37 m.

Type: Fishing. MMSI: 224265000.

Date/timePositionNaut miles runAvg speedWind from/ knotsBaromVisibWave heightAir tempDewpointWater temp
2018-Feb-14 21:36N 43°46' W 002°14'111.2
2018-Feb-14 21:31N 43°45' W 002°14'611.4
2018-Feb-14 21:00N 43°39' W 002°16'611.5
2018-Feb-14 20:31N 43°34' W 002°19'611.3
2018-Feb-14 20:01N 43°28' W 002°21'611.2
2018-Feb-14 19:30N 43°23' W 002°23'3 0.1
2018-Feb-13 22:27N 43°20' W 002°24'2 4.4
2018-Feb-13 21:59N 43°22' W 002°24'2 4.5
2018-Feb-13 21:30N 43°24' W 002°26'1 2.1
2018-Feb-13 21:00N 43°23' W 002°25'2 3.1
2018-Feb-13 20:23N 43°22' W 002°23'1 4.0
2018-Feb-13 20:00N 43°23' W 002°22'510.2
2018-Feb-13 19:30N 43°27' W 002°18'610.2
2018-Feb-13 18:57N 43°32' W 002°14'  
2018-Feb-07 23:46N 43°51' W 002°13'410.4
2018-Feb-07 23:23N 43°47' W 002°14'410.4
2018-Feb-07 23:00N 43°43' W 002°16'510.9
2018-Feb-07 22:30N 43°38' W 002°18'510.7
2018-Feb-07 22:00N 43°33' W 002°20'510.6
2018-Feb-07 21:31N 43°28' W 002°22'8 0.3
2018-Feb-06 22:23N 43°20' W 002°24'411.6
2018-Feb-06 22:00N 43°24' W 002°21'611.4
2018-Feb-06 21:30N 43°29' W 002°17'611.5
2018-Feb-06 21:00N 43°34' W 002°13'1911.6
2018-Feb-06 19:23N 43°51' W 002°01'1 3.1
2018-Feb-06 18:58N 43°52' W 001°60'2 4.0
2018-Feb-06 18:29N 43°54' W 001°60'  

Dump ship's entire track history